createdAt,value
2023-03-12T00:02:16.426Z,-0.61
2023-03-12T00:04:42.897Z,-0.66
2023-03-12T00:07:09.427Z,-0.61
2023-03-12T00:09:37.577Z,-0.51
2023-03-12T00:12:04.965Z,-0.42
2023-03-12T00:14:31.898Z,-0.58
2023-03-12T00:16:58.385Z,-0.65
2023-03-12T00:19:25.132Z,-0.58
2023-03-12T00:21:51.570Z,-0.55
2023-03-12T00:24:18.018Z,-0.57
2023-03-12T00:26:44.408Z,-0.58
2023-03-12T00:29:10.880Z,-0.56
2023-03-12T00:31:37.293Z,-0.62
2023-03-12T00:34:03.697Z,-0.68
2023-03-12T00:36:31.390Z,-0.61
2023-03-12T00:38:58.784Z,-0.53
2023-03-12T00:41:26.161Z,-0.44
2023-03-12T00:43:52.949Z,-0.53
2023-03-12T00:46:20.322Z,-0.63
2023-03-12T00:48:46.864Z,-0.48
2023-03-12T00:51:13.691Z,-0.41
2023-03-12T00:53:40.142Z,-0.38
2023-03-12T00:56:06.968Z,-0.55
2023-03-12T00:58:33.439Z,-0.55
2023-03-12T01:00:59.930Z,-0.45
2023-03-12T01:03:26.547Z,-0.47
2023-03-12T01:05:54.648Z,-0.59
2023-03-12T01:08:22.217Z,-0.56
2023-03-12T01:10:48.671Z,-0.55
2023-03-12T01:13:15.302Z,-0.38
2023-03-12T01:15:41.749Z,-0.34
2023-03-12T01:18:08.336Z,-0.26
2023-03-12T01:20:34.869Z,-0.27
2023-03-12T01:23:01.380Z,-0.35
2023-03-12T01:25:28.000Z,-0.26
2023-03-12T01:27:54.395Z,-0.33
2023-03-12T01:30:20.790Z,-0.26
2023-03-12T01:32:47.303Z,-0.35
2023-03-12T01:35:13.921Z,-0.27
2023-03-12T01:37:40.303Z,-0.17
2023-03-12T01:40:07.100Z,-0.06
2023-03-12T01:42:33.488Z,-0.15
2023-03-12T01:45:02.837Z,0.00
2023-03-12T01:47:33.000Z,-0.01
2023-03-12T01:50:00.849Z,-0.01
2023-03-12T01:52:30.721Z,-0.08
2023-03-12T01:55:06.737Z,-0.19
2023-03-12T01:57:43.855Z,-0.18
2023-03-12T02:00:20.741Z,-0.05
2023-03-12T02:02:48.596Z,0.00
2023-03-12T02:05:23.279Z,0.08
2023-03-12T02:07:49.643Z,0.04
2023-03-12T02:10:17.118Z,0.16
2023-03-12T02:12:43.718Z,0.23
2023-03-12T02:15:10.963Z,0.09
2023-03-12T02:17:37.806Z,0.17
2023-03-12T02:20:31.979Z,0.18
2023-03-12T02:23:09.330Z,0.19
2023-03-12T02:25:41.442Z,0.22
2023-03-12T02:28:14.039Z,0.33
2023-03-12T02:30:45.339Z,0.36
2023-03-12T02:33:12.621Z,0.42
2023-03-12T02:35:39.391Z,0.39
2023-03-12T02:38:44.065Z,0.51
2023-03-12T02:41:12.027Z,0.48
2023-03-12T02:43:39.204Z,0.43
2023-03-12T02:46:06.394Z,0.49
2023-03-12T02:48:32.865Z,0.46
2023-03-12T02:50:59.320Z,0.58
2023-03-12T02:53:25.846Z,0.49
2023-03-12T02:55:52.421Z,0.57
2023-03-12T02:58:18.894Z,0.59
2023-03-12T03:00:45.276Z,0.69
2023-03-12T03:03:11.688Z,0.58
2023-03-12T03:05:38.097Z,0.58
2023-03-12T03:08:05.089Z,0.55
2023-03-12T03:10:31.551Z,0.62
2023-03-12T03:12:57.984Z,0.76
2023-03-12T03:15:24.899Z,0.70
2023-03-12T03:17:51.330Z,0.67
2023-03-12T03:20:17.973Z,0.70
2023-03-12T03:22:44.544Z,0.69
2023-03-12T03:25:11.035Z,0.82
2023-03-12T03:27:37.422Z,0.68
2023-03-12T03:30:04.463Z,0.59
2023-03-12T03:32:30.922Z,0.41
2023-03-12T03:34:57.366Z,0.26
2023-03-12T03:37:23.763Z,0.24
2023-03-12T03:39:50.164Z,0.08
2023-03-12T03:42:16.531Z,0.15
2023-03-12T03:44:43.031Z,0.23
2023-03-12T03:47:09.415Z,0.39
2023-03-12T03:49:35.871Z,0.23
2023-03-12T03:52:02.357Z,0.24
2023-03-12T03:54:30.296Z,0.46
2023-03-12T03:56:56.683Z,0.60
2023-03-12T03:59:23.064Z,0.58
2023-03-12T04:01:49.469Z,0.69
2023-03-12T04:04:15.928Z,0.69
2023-03-12T04:06:42.324Z,0.79
2023-03-12T04:09:08.871Z,0.86
2023-03-12T04:11:35.269Z,0.88
2023-03-12T04:14:01.662Z,0.93
2023-03-12T04:16:28.196Z,0.96
2023-03-12T04:18:54.684Z,0.93
2023-03-12T04:21:21.164Z,0.61
2023-03-12T04:23:47.618Z,0.63
2023-03-12T04:26:14.106Z,0.76
2023-03-12T04:28:40.539Z,0.83
2023-03-12T04:31:08.122Z,0.91
2023-03-12T04:33:39.726Z,0.89
2023-03-12T04:36:07.025Z,0.80
2023-03-12T04:38:33.932Z,0.94
2023-03-12T04:41:05.146Z,0.65
2023-03-12T04:43:32.193Z,0.92
2023-03-12T04:45:59.299Z,1.05
2023-03-12T04:48:26.384Z,1.06
2023-03-12T04:50:53.411Z,1.24
2023-03-12T04:53:20.676Z,1.13
2023-03-12T04:55:47.188Z,1.21
2023-03-12T04:58:15.171Z,1.19
2023-03-12T05:00:42.228Z,1.19
2023-03-12T05:03:09.146Z,1.27
2023-03-12T05:05:35.954Z,1.28
2023-03-12T05:08:03.388Z,1.36
2023-03-12T05:10:29.756Z,1.15
2023-03-12T05:12:56.259Z,1.28
2023-03-12T05:15:22.985Z,1.29
2023-03-12T05:17:49.405Z,1.31
2023-03-12T05:20:17.643Z,1.35
2023-03-12T05:22:44.165Z,1.39
2023-03-12T05:25:11.109Z,1.38
2023-03-12T05:27:37.876Z,1.19
2023-03-12T05:30:06.448Z,0.98
2023-03-12T05:32:33.070Z,1.07
2023-03-12T05:34:59.486Z,1.16
2023-03-12T05:37:25.879Z,1.21
2023-03-12T05:39:54.271Z,1.26
2023-03-12T05:42:20.704Z,1.32
2023-03-12T05:44:47.061Z,1.30
2023-03-12T05:47:13.450Z,1.33
2023-03-12T05:49:39.885Z,1.31
2023-03-12T05:52:06.634Z,1.31
2023-03-12T05:54:33.186Z,1.43
2023-03-12T05:56:59.647Z,1.37
2023-03-12T05:59:26.263Z,1.41
2023-03-12T06:01:52.711Z,1.36
2023-03-12T06:04:19.092Z,1.34
2023-03-12T06:06:45.452Z,1.37
2023-03-12T06:09:11.973Z,1.39
2023-03-12T06:11:38.389Z,1.44
2023-03-12T06:14:05.094Z,1.52
2023-03-12T06:16:31.584Z,1.54
2023-03-12T06:19:01.020Z,1.64
2023-03-12T06:21:31.317Z,1.63
2023-03-12T06:23:58.403Z,1.41
2023-03-12T06:26:25.586Z,1.23
2023-03-12T06:28:53.175Z,1.26
2023-03-12T06:31:21.151Z,1.19
2023-03-12T06:33:47.951Z,1.10
2023-03-12T06:36:14.487Z,0.99
2023-03-12T06:38:41.766Z,0.99
2023-03-12T06:41:14.459Z,1.05
2023-03-12T06:43:41.839Z,0.94
2023-03-12T06:46:12.473Z,1.15
2023-03-12T06:48:41.465Z,1.08
2023-03-12T06:51:09.640Z,1.10
2023-03-12T06:53:36.673Z,1.22
2023-03-12T06:56:03.688Z,1.24
2023-03-12T06:58:30.614Z,1.04
2023-03-12T07:00:57.507Z,1.17
2023-03-12T07:03:24.722Z,1.26
2023-03-12T07:05:52.108Z,1.16
2023-03-12T07:08:18.939Z,1.24
2023-03-12T07:10:46.410Z,1.32
2023-03-12T07:13:13.273Z,1.27
2023-03-12T07:15:40.032Z,1.26
2023-03-12T07:18:11.406Z,1.33
2023-03-12T07:20:40.783Z,1.26
2023-03-12T07:23:07.845Z,1.32
2023-03-12T07:25:39.479Z,1.46
2023-03-12T07:28:06.827Z,1.31
2023-03-12T07:30:33.858Z,1.29
2023-03-12T07:33:09.049Z,1.36
2023-03-12T07:35:36.303Z,1.40
2023-03-12T07:38:02.853Z,1.53
2023-03-12T07:40:29.346Z,1.51
2023-03-12T07:42:55.768Z,1.37
2023-03-12T07:45:22.567Z,1.43
2023-03-12T07:47:49.686Z,1.37
2023-03-12T07:50:17.810Z,1.35
2023-03-12T07:52:44.935Z,1.30
2023-03-12T07:55:12.203Z,1.51
2023-03-12T07:57:38.736Z,1.55
2023-03-12T08:00:07.560Z,1.48
2023-03-12T08:02:34.355Z,1.49
2023-03-12T08:05:00.837Z,1.64
2023-03-12T08:07:32.133Z,1.60
2023-03-12T08:09:59.609Z,1.56
2023-03-12T08:12:26.196Z,1.60
2023-03-12T08:14:52.584Z,1.66
2023-03-12T08:17:19.258Z,1.56
2023-03-12T08:19:45.842Z,1.46
2023-03-12T08:22:12.264Z,1.86
2023-03-12T08:24:39.411Z,1.68
2023-03-12T08:27:05.903Z,1.77
2023-03-12T08:29:33.450Z,1.47
2023-03-12T08:32:04.984Z,1.64
2023-03-12T08:34:35.390Z,1.73
2023-03-12T08:37:02.910Z,1.87
2023-03-12T08:39:29.593Z,1.99
2023-03-12T08:42:00.139Z,1.98
2023-03-12T08:44:27.083Z,2.05
2023-03-12T08:46:53.523Z,2.02
2023-03-12T08:49:21.259Z,2.15
2023-03-12T08:51:47.968Z,2.15
2023-03-12T08:54:14.442Z,2.32
2023-03-12T08:56:44.137Z,2.34
2023-03-12T08:59:11.644Z,2.31
2023-03-12T09:01:38.327Z,2.50
2023-03-12T09:04:05.597Z,2.37
2023-03-12T09:06:33.437Z,2.46
2023-03-12T09:09:04.772Z,2.36
2023-03-12T09:11:33.037Z,2.52
2023-03-12T09:14:39.472Z,2.57
2023-03-12T09:16:46.810Z,3.01
2023-03-12T09:19:13.412Z,2.93
2023-03-12T09:21:40.104Z,3.06
2023-03-12T09:24:07.530Z,3.03
2023-03-12T09:26:34.452Z,2.95
2023-03-12T09:29:00.898Z,2.93
2023-03-12T09:31:27.518Z,3.20
2023-03-12T09:33:53.902Z,3.06
2023-03-12T09:36:20.521Z,3.15
2023-03-12T09:38:46.882Z,3.20
2023-03-12T09:41:28.882Z,3.26
2023-03-12T09:44:03.566Z,3.33
2023-03-12T09:46:37.680Z,3.23
2023-03-12T09:49:11.331Z,3.21
2023-03-12T09:51:49.191Z,3.23
2023-03-12T09:54:27.657Z,3.35
2023-03-12T09:56:57.195Z,3.30
2023-03-12T09:59:23.947Z,3.43
2023-03-12T10:01:58.139Z,3.53
2023-03-12T10:04:58.673Z,3.67
2023-03-12T10:07:27.718Z,3.75
2023-03-12T10:10:07.994Z,3.54
2023-03-12T10:12:55.749Z,3.77
2023-03-12T10:15:40.084Z,3.85
2023-03-12T10:18:25.616Z,3.82
2023-03-12T10:21:07.523Z,4.02
2023-03-12T10:23:52.162Z,4.15
2023-03-12T10:26:53.590Z,4.12
2023-03-12T10:29:32.569Z,4.27
2023-03-12T10:32:10.975Z,4.42
2023-03-12T10:34:42.853Z,4.51
2023-03-12T10:37:18.387Z,4.39
2023-03-12T10:39:45.216Z,4.60
2023-03-12T10:42:20.987Z,4.83
2023-03-12T10:44:50.880Z,5.40
2023-03-12T10:47:36.971Z,5.39
2023-03-12T10:50:15.262Z,5.59
2023-03-12T10:52:42.374Z,5.19
2023-03-12T10:55:32.424Z,4.98
2023-03-12T10:57:58.831Z,4.89
2023-03-12T11:00:31.081Z,5.15
2023-03-12T11:03:20.309Z,5.09
2023-03-12T11:05:49.768Z,5.54
2023-03-12T11:08:36.896Z,5.72
2023-03-12T11:11:04.979Z,5.57
2023-03-12T11:13:38.081Z,5.86
2023-03-12T11:16:16.475Z,5.93
2023-03-12T11:19:26.847Z,6.20
2023-03-12T11:21:58.225Z,6.35
2023-03-12T11:24:24.836Z,6.68
2023-03-12T11:27:23.969Z,6.54
2023-03-12T11:29:50.659Z,6.70
2023-03-12T11:32:31.389Z,6.79
2023-03-12T11:34:58.183Z,7.71
2023-03-12T11:37:46.172Z,8.16
2023-03-12T11:40:24.230Z,8.32
2023-03-12T11:43:11.563Z,7.92
2023-03-12T11:45:52.725Z,8.44
2023-03-12T11:48:37.453Z,8.33
2023-03-12T11:51:17.560Z,8.08
2023-03-12T11:54:08.081Z,8.48
2023-03-12T11:56:38.882Z,8.71
2023-03-12T11:59:18.507Z,8.25
2023-03-12T12:02:09.747Z,7.98
2023-03-12T12:05:15.827Z,8.17
2023-03-12T12:08:00.816Z,8.66
2023-03-12T12:10:33.442Z,8.63
2023-03-12T12:13:38.602Z,8.71
2023-03-12T12:16:16.966Z,8.79
2023-03-12T12:19:07.068Z,8.75
2023-03-12T12:22:08.119Z,8.71
2023-03-12T12:24:53.247Z,8.87
2023-03-12T12:27:32.151Z,9.01
2023-03-12T12:30:22.531Z,8.84
2023-03-12T12:32:48.994Z,9.08
2023-03-12T12:35:35.112Z,9.06
2023-03-12T12:38:09.182Z,8.93
2023-03-12T12:40:37.752Z,8.94
2023-03-12T12:43:17.659Z,8.72
2023-03-12T12:45:45.017Z,8.72
2023-03-12T12:48:25.727Z,8.81
2023-03-12T12:50:54.584Z,8.83
2023-03-12T12:53:25.547Z,8.73
2023-03-12T12:56:00.262Z,8.66
2023-03-12T12:58:43.633Z,8.66
2023-03-12T13:01:10.995Z,8.77
2023-03-12T13:03:38.559Z,8.94
2023-03-12T13:06:06.768Z,8.88
2023-03-12T13:08:44.914Z,8.94
2023-03-12T13:11:19.446Z,8.93
2023-03-12T13:14:10.949Z,9.07
2023-03-12T13:16:39.468Z,9.25
2023-03-12T13:19:14.952Z,9.22
2023-03-12T13:21:54.234Z,9.45
2023-03-12T13:24:31.097Z,9.54
2023-03-12T13:27:09.519Z,9.83
2023-03-12T13:29:39.787Z,10.08
2023-03-12T13:32:10.639Z,10.25
2023-03-12T13:34:46.396Z,10.56
2023-03-12T13:37:47.351Z,10.71
2023-03-12T13:40:29.014Z,10.81
2023-03-12T13:43:14.958Z,10.71
2023-03-12T13:45:41.273Z,11.01
2023-03-12T13:48:20.779Z,11.26
2023-03-12T13:51:10.546Z,11.38
2023-03-12T13:53:40.687Z,11.35
2023-03-12T13:56:11.419Z,11.42
2023-03-12T13:58:46.981Z,11.48
2023-03-12T14:01:18.014Z,11.48
2023-03-12T14:03:49.767Z,11.49
2023-03-12T14:06:22.897Z,11.37
2023-03-12T14:09:24.237Z,11.40
2023-03-12T14:12:05.680Z,11.35
2023-03-12T14:14:51.013Z,11.40
2023-03-12T14:17:30.922Z,11.42
2023-03-12T14:20:08.071Z,11.58
2023-03-12T14:22:38.182Z,11.77
2023-03-12T14:25:22.018Z,11.92
2023-03-12T14:27:49.823Z,12.04
2023-03-12T14:30:25.298Z,12.05
2023-03-12T14:32:56.293Z,12.20
2023-03-12T14:35:28.316Z,12.26
2023-03-12T14:38:03.074Z,12.25
2023-03-12T14:40:46.031Z,12.33
2023-03-12T14:43:20.778Z,12.33
2023-03-12T14:45:50.927Z,12.35
2023-03-12T14:48:21.573Z,12.41
2023-03-12T14:50:48.762Z,12.49
2023-03-12T14:53:30.578Z,12.47
2023-03-12T14:56:20.984Z,12.65
2023-03-12T14:58:49.283Z,12.68
2023-03-12T15:01:20.525Z,12.73
2023-03-12T15:03:50.656Z,12.74
2023-03-12T15:06:29.016Z,12.60
2023-03-12T15:08:56.996Z,12.66
2023-03-12T15:11:27.057Z,12.65
2023-03-12T15:14:02.226Z,12.58
2023-03-12T15:16:28.830Z,12.53
2023-03-12T15:18:56.490Z,12.53
2023-03-12T15:21:23.243Z,12.63
2023-03-12T15:23:50.375Z,12.55
2023-03-12T15:26:19.847Z,12.68
2023-03-12T15:29:01.272Z,12.63
2023-03-12T15:31:28.392Z,12.62
2023-03-12T15:34:03.847Z,12.63
2023-03-12T15:36:32.595Z,12.57
2023-03-12T15:39:12.810Z,12.59
2023-03-12T15:41:48.780Z,12.56
2023-03-12T15:44:20.890Z,12.49
2023-03-12T15:46:50.210Z,12.52
2023-03-12T15:49:29.847Z,12.49
2023-03-12T15:52:19.834Z,12.50
2023-03-12T15:55:12.103Z,12.50
2023-03-12T15:57:45.859Z,12.50
2023-03-12T16:00:12.215Z,12.51
2023-03-12T16:02:58.266Z,12.44
2023-03-12T16:05:28.272Z,12.46
2023-03-12T16:07:54.781Z,12.54
2023-03-12T16:10:24.666Z,12.60
2023-03-12T16:12:58.148Z,12.41
2023-03-12T16:15:30.483Z,12.50
2023-03-12T16:17:57.087Z,12.57
2023-03-12T16:20:23.594Z,12.54
2023-03-12T16:22:50.017Z,12.56
2023-03-12T16:25:16.515Z,12.48
2023-03-12T16:27:49.748Z,12.41
2023-03-12T16:30:36.390Z,12.55
2023-03-12T16:33:08.926Z,12.58
2023-03-12T16:35:36.007Z,12.45
2023-03-12T16:38:02.723Z,12.27
2023-03-12T16:40:35.419Z,12.37
2023-03-12T16:43:07.375Z,12.40
2023-03-12T16:45:35.955Z,12.33
2023-03-12T16:48:06.499Z,12.47
2023-03-12T16:50:33.116Z,12.50
2023-03-12T16:52:59.864Z,12.52
2023-03-12T16:55:30.084Z,12.58
2023-03-12T16:58:00.308Z,12.58
2023-03-12T17:00:30.138Z,12.50
2023-03-12T17:02:59.641Z,12.55
2023-03-12T17:05:30.477Z,12.52
2023-03-12T17:07:58.403Z,12.46
2023-03-12T17:10:26.143Z,12.51
2023-03-12T17:12:53.715Z,12.48
2023-03-12T17:15:21.486Z,12.39
2023-03-12T17:17:49.116Z,12.39
2023-03-12T17:20:17.889Z,12.51
2023-03-12T17:22:44.404Z,12.55
2023-03-12T17:25:23.224Z,12.48
2023-03-12T17:27:50.141Z,12.30
2023-03-12T17:30:16.843Z,12.34
2023-03-12T17:32:43.405Z,12.38
2023-03-12T17:35:09.958Z,12.44
2023-03-12T17:37:36.398Z,12.38
2023-03-12T17:40:09.324Z,12.33
2023-03-12T17:42:37.231Z,12.36
2023-03-12T17:45:08.254Z,12.20
2023-03-12T17:47:35.622Z,12.24
2023-03-12T17:50:02.981Z,12.27
2023-03-12T17:52:29.387Z,12.28
2023-03-12T17:54:55.779Z,12.35
2023-03-12T17:57:22.703Z,12.30
2023-03-12T17:59:49.137Z,12.34
2023-03-12T18:02:15.572Z,12.44
2023-03-12T18:04:42.031Z,12.18
2023-03-12T18:07:08.955Z,12.11
2023-03-12T18:09:35.483Z,12.28
2023-03-12T18:12:02.246Z,12.13
2023-03-12T18:14:28.599Z,12.28
2023-03-12T18:16:54.992Z,12.17
2023-03-12T18:19:21.461Z,12.05
2023-03-12T18:21:47.861Z,12.15
2023-03-12T18:24:14.900Z,12.17
2023-03-12T18:26:41.640Z,12.00
2023-03-12T18:29:08.025Z,12.14
2023-03-12T18:31:34.676Z,12.08
2023-03-12T18:34:01.190Z,11.98
2023-03-12T18:36:27.669Z,11.82
2023-03-12T18:38:54.048Z,11.98
2023-03-12T18:41:20.628Z,11.89
2023-03-12T18:43:47.060Z,11.93
2023-03-12T18:46:13.619Z,11.93
2023-03-12T18:48:41.792Z,11.90
2023-03-12T18:51:10.087Z,11.81
2023-03-12T18:53:36.649Z,11.75
2023-03-12T18:56:03.101Z,11.82
2023-03-12T18:58:29.615Z,11.71
2023-03-12T19:00:57.835Z,11.73
2023-03-12T19:03:25.578Z,11.69
2023-03-12T19:06:07.124Z,11.71
2023-03-12T19:08:34.062Z,11.66
2023-03-12T19:11:00.467Z,11.59
2023-03-12T19:13:26.878Z,11.61
2023-03-12T19:16:04.715Z,11.58
2023-03-12T19:18:31.194Z,11.54
2023-03-12T19:20:57.638Z,11.38
2023-03-12T19:23:24.094Z,11.43
2023-03-12T19:25:50.448Z,11.36
2023-03-12T19:28:17.120Z,11.29
2023-03-12T19:30:43.491Z,11.41
2023-03-12T19:33:10.227Z,11.44
2023-03-12T19:35:41.463Z,11.50
2023-03-12T19:38:09.002Z,11.43
2023-03-12T19:40:35.753Z,11.49
2023-03-12T19:43:02.548Z,11.62
2023-03-12T19:45:29.200Z,11.53
2023-03-12T19:47:55.639Z,11.58
2023-03-12T19:50:22.976Z,11.49
2023-03-12T19:52:49.642Z,11.65
2023-03-12T19:55:16.712Z,11.42
2023-03-12T19:57:43.107Z,11.40
2023-03-12T20:00:12.009Z,11.47
2023-03-12T20:02:39.459Z,11.53
2023-03-12T20:05:07.480Z,11.57
2023-03-12T20:07:34.066Z,11.50
2023-03-12T20:10:00.650Z,11.54
2023-03-12T20:12:27.040Z,11.55
2023-03-12T20:14:53.560Z,11.48
2023-03-12T20:17:19.926Z,11.48
2023-03-12T20:19:46.328Z,11.40
2023-03-12T20:22:12.951Z,11.37
2023-03-12T20:24:39.368Z,11.23
2023-03-12T20:27:05.831Z,11.40
2023-03-12T20:29:32.266Z,11.35
2023-03-12T20:31:58.692Z,11.24
2023-03-12T20:34:28.943Z,11.18
2023-03-12T20:36:55.292Z,11.09
2023-03-12T20:39:21.644Z,11.10
2023-03-12T20:41:49.402Z,11.12
2023-03-12T20:44:16.599Z,10.96
2023-03-12T20:46:43.044Z,10.88
2023-03-12T20:49:09.411Z,10.82
2023-03-12T20:51:35.989Z,10.69
2023-03-12T20:54:02.397Z,10.58
2023-03-12T20:56:28.791Z,10.38
2023-03-12T20:58:55.343Z,10.53
2023-03-12T21:01:21.839Z,10.44
2023-03-12T21:03:48.256Z,10.36
2023-03-12T21:06:14.674Z,10.24
2023-03-12T21:08:41.088Z,10.10
2023-03-12T21:11:07.909Z,10.05
2023-03-12T21:13:34.521Z,9.89
2023-03-12T21:16:00.890Z,9.74
2023-03-12T21:18:28.971Z,9.64
2023-03-12T21:21:01.301Z,9.39
2023-03-12T21:23:27.820Z,9.35
2023-03-12T21:25:59.709Z,9.30
2023-03-12T21:28:27.223Z,9.26
2023-03-12T21:30:53.761Z,9.17
2023-03-12T21:33:20.125Z,9.13
2023-03-12T21:35:47.253Z,9.00
2023-03-12T21:38:13.813Z,8.86
2023-03-12T21:40:40.215Z,8.86
2023-03-12T21:43:06.620Z,8.77
2023-03-12T21:45:34.102Z,8.70
2023-03-12T21:48:00.464Z,8.66
2023-03-12T21:50:26.797Z,8.68
2023-03-12T21:52:53.347Z,8.69
2023-03-12T21:55:19.731Z,8.55
2023-03-12T21:57:46.270Z,8.49
2023-03-12T22:00:14.069Z,8.29
2023-03-12T22:02:41.758Z,8.28
2023-03-12T22:05:08.952Z,8.23
2023-03-12T22:07:35.852Z,8.31
2023-03-12T22:10:03.520Z,8.43
2023-03-12T22:12:29.981Z,8.24
2023-03-12T22:14:56.415Z,8.31
2023-03-12T22:17:22.847Z,8.23
2023-03-12T22:19:49.219Z,8.25
2023-03-12T22:22:15.682Z,8.29
2023-03-12T22:24:42.298Z,8.30
2023-03-12T22:27:08.873Z,8.42
2023-03-12T22:29:35.332Z,8.32
2023-03-12T22:32:01.962Z,8.22
2023-03-12T22:34:29.599Z,8.26
2023-03-12T22:36:56.004Z,8.36
2023-03-12T22:39:22.432Z,8.12
2023-03-12T22:41:52.986Z,8.26
2023-03-12T22:44:19.579Z,8.33
2023-03-12T22:46:46.109Z,8.41
2023-03-12T22:49:12.633Z,8.26
2023-03-12T22:51:39.018Z,8.35
2023-03-12T22:54:05.504Z,8.32
2023-03-12T22:56:32.058Z,8.37
2023-03-12T22:58:58.605Z,8.50
2023-03-12T23:01:25.221Z,8.44
2023-03-12T23:03:51.812Z,8.52
2023-03-12T23:06:20.958Z,8.45
2023-03-12T23:08:48.336Z,8.50
2023-03-12T23:11:15.793Z,8.64
2023-03-12T23:13:44.469Z,8.57
2023-03-12T23:16:14.171Z,8.53
2023-03-12T23:18:41.579Z,8.58
2023-03-12T23:21:10.066Z,8.75
2023-03-12T23:23:39.346Z,8.82
2023-03-12T23:26:06.578Z,8.78
2023-03-12T23:28:32.970Z,8.80
2023-03-12T23:31:07.448Z,8.75
2023-03-12T23:33:34.839Z,8.97
2023-03-12T23:36:13.279Z,9.00
2023-03-12T23:38:40.220Z,9.04
2023-03-12T23:41:18.525Z,9.33
2023-03-12T23:43:45.296Z,9.29
2023-03-12T23:46:13.067Z,9.53
2023-03-12T23:48:40.346Z,9.64
2023-03-12T23:51:12.966Z,9.57
2023-03-12T23:53:43.517Z,9.56
2023-03-12T23:56:14.677Z,9.70
2023-03-12T23:58:41.678Z,9.75
